Time;durP1;ratioP1;P1;durP2;ratioP2;P2;SDS_P1;SDS_P2;PMS_P1;PMS_P2;Temp;Humidity;BMP_temperature;BMP_pressure;BME280_temperature;BME280_humidity;BME280_pressure;Samples;Min_cycle;Max_cycle;Signal;HPM_P1;HPM_P2
2022/09/11 00:00:33;;;;;;;;;;;21.20;83.50;;;;;;5078715;28;19962;-56
2022/09/11 00:02:59;;;;;;;;;;;21.20;83.40;;;;;;5096589;28;20425;-55
2022/09/11 00:05:24;;;;;;;;;;;21.30;83.50;;;;;;5095721;28;20255;-56
2022/09/11 00:07:50;;;;;;;;;;;21.30;83.50;;;;;;5097013;28;19935;-53
2022/09/11 00:10:16;;;;;;;;;;;21.30;83.50;;;;;;5096391;28;20015;-54
2022/09/11 00:12:42;;;;;;;;;;;21.30;83.40;;;;;;5096213;28;19972;-56
2022/09/11 00:15:07;;;;;;;;;;;21.20;83.40;;;;;;5096555;28;19912;-55
2022/09/11 00:17:33;;;;;;;;;;;21.20;83.40;;;;;;5096223;28;19961;-56
2022/09/11 00:19:59;;;;;;;;;;;21.20;83.40;;;;;;5096507;28;19908;-55
2022/09/11 00:22:26;;;;;;;;;;;21.20;83.40;;;;;;5096454;28;20005;-52
2022/09/11 00:24:52;;;;;;;;;;;21.20;83.40;;;;;;5095992;28;19965;-52
2022/09/11 00:27:18;;;;;;;;;;;21.30;83.40;;;;;;5096635;28;20011;-56
2022/09/11 00:29:43;;;;;;;;;;;21.30;83.40;;;;;;5096367;28;19999;-52
2022/09/11 00:32:09;;;;;;;;;;;21.30;83.50;;;;;;5095941;28;19948;-55
2022/09/11 00:34:35;;;;;;;;;;;21.20;83.30;;;;;;5095816;28;20502;-57
2022/09/11 00:37:00;;;;;;;;;;;21.20;83.40;;;;;;5096228;28;19998;-54
2022/09/11 00:39:26;;;;;;;;;;;21.20;83.50;;;;;;5096456;28;19916;-55
2022/09/11 00:41:51;;;;;;;;;;;21.20;83.40;;;;;;5095738;28;19912;-52
2022/09/11 00:44:17;;;;;;;;;;;21.20;83.50;;;;;;5095734;28;19963;-56
2022/09/11 00:46:45;;;;;;;;;;;21.20;83.40;;;;;;5077682;28;19912;-51
2022/09/11 00:49:15;;;;;;;;;;;21.20;83.50;;;;;;5095510;28;19919;-54
2022/09/11 00:51:42;;;;;;;;;;;21.20;83.50;;;;;;5077651;28;20319;-54
2022/09/11 00:54:08;;;;;;;;;;;21.20;83.50;;;;;;5095827;28;19935;-54
2022/09/11 00:56:34;;;;;;;;;;;21.20;83.50;;;;;;5077592;28;19915;-57
2022/09/11 00:59:00;;;;;;;;;;;21.20;83.40;;;;;;5096019;28;20350;-54
2022/09/11 01:01:25;;;;;;;;;;;21.20;83.40;;;;;;5095298;28;19915;-54
2022/09/11 01:03:51;;;;;;;;;;;21.20;83.90;;;;;;5095146;28;20294;-53
2022/09/11 01:06:19;;;;;;;;;;;21.20;83.40;;;;;;5095440;28;20024;-56
2022/09/11 01:08:45;;;;;;;;;;;21.20;83.40;;;;;;5095438;28;19921;-55
2022/09/11 01:11:34;;;;;;;;;;;21.20;83.40;;;;;;5095596;28;19912;-56
2022/09/11 01:14:04;;;;;;;;;;;21.20;83.30;;;;;;5095193;28;19912;-53
2022/09/11 01:16:30;;;;;;;;;;;21.20;83.40;;;;;;5095274;28;19908;-53
2022/09/11 01:19:04;;;;;;;;;;;21.20;83.40;;;;;;5095096;28;20003;-56
2022/09/11 01:21:38;;;;;;;;;;;21.20;83.40;;;;;;5095519;28;19962;-55
2022/09/11 01:24:24;;;;;;;;;;;21.20;83.40;;;;;;5095603;28;19912;-54
2022/09/11 01:26:55;;;;;;;;;;;21.20;83.40;;;;;;5094909;28;19917;-50
2022/09/11 01:29:26;;;;;;;;;;;21.20;83.40;;;;;;5094825;28;20016;-53
2022/09/11 01:32:04;;;;;;;;;;;21.20;83.40;;;;;;5095172;28;20270;-55
2022/09/11 01:34:32;;;;;;;;;;;21.20;83.40;;;;;;5094956;28;19991;-56
2022/09/11 01:37:03;;;;;;;;;;;21.20;83.40;;;;;;5094864;28;19912;-55
2022/09/11 01:39:32;;;;;;;;;;;21.20;83.40;;;;;;5094648;28;19997;-56
2022/09/11 01:42:05;;;;;;;;;;;21.20;83.40;;;;;;5094919;28;19912;-56
2022/09/11 01:44:43;;;;;;;;;;;21.20;83.40;;;;;;5095000;28;20060;-55
2022/09/11 01:47:09;;;;;;;;;;;21.20;83.40;;;;;;5094912;28;19921;-53
2022/09/11 01:49:54;;;;;;;;;;;21.20;83.30;;;;;;5094612;28;19919;-57
2022/09/11 01:52:29;;;;;;;;;;;21.20;83.30;;;;;;5094760;28;19915;-56
2022/09/11 01:55:00;;;;;;;;;;;21.20;83.40;;;;;;5094802;28;19915;-57
2022/09/11 01:57:29;;;;;;;;;;;21.20;83.40;;;;;;5094742;28;19914;-54
2022/09/11 01:59:57;;;;;;;;;;;21.20;83.40;;;;;;5094156;28;19908;-56
2022/09/11 02:02:35;;;;;;;;;;;21.20;83.30;;;;;;5094287;28;20263;-53
2022/09/11 02:05:14;;;;;;;;;;;21.20;83.30;;;;;;5094792;28;19973;-54
2022/09/11 02:07:48;;;;;;;;;;;21.20;83.40;;;;;;5094660;28;19912;-53
2022/09/11 02:10:17;;;;;;;;;;;21.20;83.40;;;;;;5094315;28;19962;-53
2022/09/11 02:12:45;;;;;;;;;;;21.20;83.40;;;;;;5094552;28;20312;-53
2022/09/11 02:15:12;;;;;;;;;;;21.20;83.40;;;;;;5094105;28;19994;-56
2022/09/11 02:17:58;;;;;;;;;;;21.10;83.40;;;;;;5094516;28;19912;-56
2022/09/11 02:20:24;;;;;;;;;;;21.10;83.40;;;;;;5076073;28;19908;-53
2022/09/11 02:22:50;;;;;;;;;;;21.20;83.40;;;;;;5094350;28;20007;-53
2022/09/11 02:25:15;;;;;;;;;;;21.20;83.40;;;;;;5094286;28;19918;-56
2022/09/11 02:27:41;;;;;;;;;;;21.20;83.40;;;;;;5094377;28;19919;-55
2022/09/11 02:30:07;;;;;;;;;;;21.20;83.40;;;;;;5093785;28;20007;-59
2022/09/11 02:32:35;;;;;;;;;;;21.20;83.40;;;;;;5093797;28;19909;-55
2022/09/11 02:35:01;;;;;;;;;;;21.20;83.40;;;;;;5094247;28;20343;-56
2022/09/11 02:37:42;;;;;;;;;;;21.20;83.40;;;;;;5093987;28;19909;-54
2022/09/11 02:40:19;;;;;;;;;;;21.20;83.40;;;;;;5094233;28;19912;-56
2022/09/11 02:42:51;;;;;;;;;;;21.20;83.40;;;;;;5076063;28;19908;-56
2022/09/11 02:45:16;;;;;;;;;;;21.20;83.40;;;;;;5075934;28;19912;-55
2022/09/11 02:47:53;;;;;;;;;;;21.20;83.40;;;;;;5094047;28;19957;-55
2022/09/11 02:50:20;;;;;;;;;;;21.20;83.40;;;;;;5093875;28;20376;-54
2022/09/11 02:53:24;;;;;;;;;;;21.10;83.30;;;;;;5094151;28;19908;-54
2022/09/11 02:55:59;;;;;;;;;;;21.20;83.40;;;;;;5014814;28;19910;-56
2022/09/11 02:58:31;;;;;;;;;;;21.20;83.40;;;;;;5015044;28;19971;-53
2022/09/11 03:00:58;;;;;;;;;;;21.20;83.40;;;;;;5067200;28;19908;-55
2022/09/11 03:03:24;;;;;;;;;;;21.20;83.40;;;;;;5093675;28;19920;-56
2022/09/11 03:05:49;;;;;;;;;;;21.10;83.30;;;;;;5093630;28;19919;-56
2022/09/11 03:08:18;;;;;;;;;;;21.20;83.40;;;;;;5093868;28;19923;-56
2022/09/11 03:10:48;;;;;;;;;;;21.20;83.40;;;;;;5093827;28;19915;-54
2022/09/11 03:13:14;;;;;;;;;;;21.20;83.30;;;;;;5075948;28;19908;-54
2022/09/11 03:15:42;;;;;;;;;;;21.20;83.30;;;;;;5093674;28;19915;-54
2022/09/11 03:18:08;;;;;;;;;;;21.20;83.30;;;;;;5093563;28;20378;-54
2022/09/11 03:20:33;;;;;;;;;;;21.20;83.30;;;;;;5093647;28;19908;-53
2022/09/11 03:22:59;;;;;;;;;;;21.20;83.30;;;;;;5093807;28;19908;-56
2022/09/11 03:25:27;;;;;;;;;;;21.20;83.30;;;;;;5093310;28;19974;-54
2022/09/11 03:27:53;;;;;;;;;;;21.20;83.30;;;;;;5094077;28;19958;-56
2022/09/11 03:30:19;;;;;;;;;;;21.20;83.30;;;;;;5093647;28;19909;-54
2022/09/11 03:32:45;;;;;;;;;;;21.10;83.30;;;;;;5093432;28;19951;-56
2022/09/11 03:35:10;;;;;;;;;;;21.10;83.30;;;;;;5093723;28;19944;-56
2022/09/11 03:37:35;;;;;;;;;;;21.10;83.30;;;;;;5075658;28;20327;-55
2022/09/11 03:40:01;;;;;;;;;;;21.10;83.30;;;;;;5075480;28;19908;-53
2022/09/11 03:42:27;;;;;;;;;;;21.10;83.30;;;;;;5078307;28;19934;-56
2022/09/11 03:44:53;;;;;;;;;;;21.10;83.30;;;;;;5079042;28;19962;-55
2022/09/11 03:47:21;;;;;;;;;;;21.10;83.30;;;;;;5096838;28;19916;-56
2022/09/11 03:49:47;;;;;;;;;;;21.10;83.30;;;;;;5097111;28;19908;-56
2022/09/11 03:52:12;;;;;;;;;;;21.10;83.30;;;;;;5097019;28;19919;-57
2022/09/11 03:54:38;;;;;;;;;;;21.10;83.30;;;;;;5096538;28;19908;-53
2022/09/11 03:57:04;;;;;;;;;;;21.10;83.30;;;;;;5097048;28;20013;-57
2022/09/11 03:59:30;;;;;;;;;;;21.10;83.30;;;;;;5096875;28;20380;-57
2022/09/11 04:01:55;;;;;;;;;;;21.10;83.30;;;;;;5096788;28;19908;-54
2022/09/11 04:04:21;;;;;;;;;;;21.10;83.30;;;;;;5096898;28;19920;-55
2022/09/11 04:06:46;;;;;;;;;;;21.10;83.30;;;;;;5078467;28;19920;-54
2022/09/11 04:09:12;;;;;;;;;;;21.10;83.30;;;;;;5096369;28;19912;-56
2022/09/11 04:11:38;;;;;;;;;;;21.10;83.30;;;;;;5096408;28;19912;-54
2022/09/11 04:14:04;;;;;;;;;;;21.10;83.40;;;;;;5096579;28;19908;-52
2022/09/11 04:16:31;;;;;;;;;;;21.10;83.40;;;;;;5096606;28;20298;-55
2022/09/11 04:18:58;;;;;;;;;;;21.10;83.30;;;;;;5096225;28;20316;-55
2022/09/11 04:21:23;;;;;;;;;;;21.10;83.30;;;;;;5096780;28;19908;-55
2022/09/11 04:23:50;;;;;;;;;;;21.10;83.30;;;;;;5096154;28;20049;-54
2022/09/11 04:26:17;;;;;;;;;;;21.10;83.30;;;;;;5096253;28;19956;-57
2022/09/11 04:28:42;;;;;;;;;;;21.10;83.30;;;;;;5096192;28;19912;-54
2022/09/11 04:31:08;;;;;;;;;;;21.10;83.30;;;;;;5095898;28;20386;-55
2022/09/11 04:33:35;;;;;;;;;;;21.10;83.40;;;;;;5096263;28;20283;-56
2022/09/11 04:36:04;;;;;;;;;;;21.10;83.30;;;;;;5096149;28;19915;-54
2022/09/11 04:38:30;;;;;;;;;;;21.10;83.40;;;;;;5095746;28;20328;-53
2022/09/11 04:40:58;;;;;;;;;;;21.10;83.30;;;;;;5095808;28;19908;-53
2022/09/11 04:43:24;;;;;;;;;;;21.10;83.40;;;;;;5096021;28;19915;-54
2022/09/11 04:45:49;;;;;;;;;;;21.10;83.30;;;;;;5095597;28;19916;-55
2022/09/11 04:48:14;;;;;;;;;;;21.10;83.40;;;;;;5095963;28;19912;-55
2022/09/11 04:50:40;;;;;;;;;;;21.10;83.40;;;;;;5095853;28;20323;-54
2022/09/11 04:53:05;;;;;;;;;;;21.10;83.30;;;;;;5077255;28;19908;-53
2022/09/11 04:55:31;;;;;;;;;;;21.10;83.30;;;;;;5095533;28;19908;-52
2022/09/11 04:57:56;;;;;;;;;;;21.00;83.30;;;;;;5095534;28;19933;-56
2022/09/11 05:00:22;;;;;;;;;;;21.10;83.40;;;;;;5095799;28;19912;-51
2022/09/11 05:02:48;;;;;;;;;;;21.10;83.30;;;;;;5095258;28;20355;-57
2022/09/11 05:05:13;;;;;;;;;;;21.10;83.30;;;;;;5095634;28;19909;-54
2022/09/11 05:07:38;;;;;;;;;;;21.10;83.30;;;;;;5095242;28;19912;-56
2022/09/11 05:10:04;;;;;;;;;;;21.10;83.30;;;;;;5095491;28;19915;-51
2022/09/11 05:12:33;;;;;;;;;;;21.10;83.30;;;;;;5077298;28;19908;-53
2022/09/11 05:14:58;;;;;;;;;;;21.10;83.30;;;;;;5095340;28;19908;-55
2022/09/11 05:17:24;;;;;;;;;;;21.10;83.30;;;;;;5095035;28;19940;-54
2022/09/11 05:19:49;;;;;;;;;;;21.10;83.30;;;;;;5095663;28;19908;-55
2022/09/11 05:22:15;;;;;;;;;;;21.10;83.30;;;;;;5077125;28;19957;-56
2022/09/11 05:24:40;;;;;;;;;;;21.10;83.30;;;;;;5095342;28;19908;-52
2022/09/11 05:27:07;;;;;;;;;;;21.10;83.40;;;;;;5094815;28;20266;-55
2022/09/11 05:29:32;;;;;;;;;;;21.10;83.30;;;;;;5095132;28;19913;-55
2022/09/11 05:31:57;;;;;;;;;;;21.00;83.30;;;;;;5095069;28;19920;-54
2022/09/11 05:34:24;;;;;;;;;;;21.10;83.40;;;;;;5076814;28;20432;-55
2022/09/11 05:36:50;;;;;;;;;;;21.00;83.30;;;;;;5076503;28;19908;-53
2022/09/11 05:39:15;;;;;;;;;;;21.00;83.30;;;;;;5095018;28;19908;-57
2022/09/11 05:41:41;;;;;;;;;;;21.00;83.30;;;;;;5094664;28;19918;-57
2022/09/11 05:44:06;;;;;;;;;;;21.00;83.30;;;;;;5076677;28;20262;-53
2022/09/11 05:46:32;;;;;;;;;;;21.00;83.30;;;;;;5094314;28;19962;-55
2022/09/11 05:48:58;;;;;;;;;;;21.00;83.30;;;;;;5076633;28;19923;-56
2022/09/11 05:51:23;;;;;;;;;;;21.00;83.30;;;;;;5094677;28;19978;-54
2022/09/11 05:53:53;;;;;;;;;;;21.00;83.30;;;;;;5094596;28;20350;-56
2022/09/11 05:56:20;;;;;;;;;;;21.00;83.30;;;;;;5094227;28;19915;-53
2022/09/11 05:58:46;;;;;;;;;;;21.00;83.40;;;;;;5094688;28;19950;-56
2022/09/11 06:01:13;;;;;;;;;;;21.00;83.30;;;;;;5076836;28;20323;-53
2022/09/11 06:03:39;;;;;;;;;;;21.00;83.30;;;;;;5093468;28;19928;-53
2022/09/11 06:06:05;;;;;;;;;;;21.00;83.30;;;;;;5094342;28;19912;-54
2022/09/11 06:08:32;;;;;;;;;;;21.00;83.30;;;;;;5094308;28;20430;-54
2022/09/11 06:10:57;;;;;;;;;;;21.00;83.30;;;;;;5094420;28;20010;-55
2022/09/11 06:13:24;;;;;;;;;;;21.00;83.30;;;;;;5094702;28;19988;-55
2022/09/11 06:15:50;;;;;;;;;;;21.00;83.30;;;;;;5094098;28;19915;-51
2022/09/11 06:18:15;;;;;;;;;;;21.00;83.30;;;;;;5094477;28;19908;-54
2022/09/11 06:20:41;;;;;;;;;;;21.10;83.40;;;;;;5094533;28;19912;-52
2022/09/11 06:23:10;;;;;;;;;;;21.00;83.30;;;;;;5094104;28;20001;-54
2022/09/11 06:25:36;;;;;;;;;;;21.10;83.30;;;;;;5094114;28;19912;-52
2022/09/11 06:28:02;;;;;;;;;;;21.00;83.30;;;;;;5094128;28;19912;-53
2022/09/11 06:30:27;;;;;;;;;;;21.00;83.30;;;;;;5094014;28;19965;-56
2022/09/11 06:32:55;;;;;;;;;;;21.00;83.30;;;;;;5093890;28;20263;-55
2022/09/11 06:35:22;;;;;;;;;;;21.10;83.30;;;;;;5076105;28;20261;-54
2022/09/11 06:37:47;;;;;;;;;;;21.00;83.30;;;;;;5094051;28;20346;-54
2022/09/11 06:40:13;;;;;;;;;;;21.10;83.30;;;;;;5093920;28;19955;-55
2022/09/11 06:42:38;;;;;;;;;;;21.00;83.30;;;;;;5075860;28;20362;-54
2022/09/11 06:45:04;;;;;;;;;;;21.00;83.30;;;;;;5094274;28;19938;-55
2022/09/11 06:47:30;;;;;;;;;;;21.10;83.30;;;;;;5093773;28;19912;-55
2022/09/11 06:49:55;;;;;;;;;;;21.10;83.30;;;;;;5075692;28;19961;-54
2022/09/11 06:52:21;;;;;;;;;;;21.00;83.30;;;;;;5093474;28;19908;-56
2022/09/11 06:54:49;;;;;;;;;;;21.10;83.80;;;;;;5093548;28;19908;-54
2022/09/11 06:57:14;;;;;;;;;;;21.10;83.30;;;;;;5093988;28;20016;-54
2022/09/11 06:59:41;;;;;;;;;;;21.10;83.30;;;;;;5093812;28;19960;-51
2022/09/11 07:02:10;;;;;;;;;;;21.10;83.30;;;;;;5093692;28;19961;-57
2022/09/11 07:04:36;;;;;;;;;;;21.10;83.30;;;;;;5093893;28;19982;-55
2022/09/11 07:07:01;;;;;;;;;;;21.10;83.30;;;;;;5093140;28;19920;-56
2022/09/11 07:09:27;;;;;;;;;;;21.00;83.20;;;;;;5093511;28;19990;-54
2022/09/11 07:11:52;;;;;;;;;;;21.10;83.30;;;;;;5093374;28;19908;-56
2022/09/11 07:14:20;;;;;;;;;;;21.00;83.20;;;;;;5093571;28;19919;-56
2022/09/11 07:16:49;;;;;;;;;;;21.10;83.30;;;;;;5097328;28;20412;-56
2022/09/11 07:19:17;;;;;;;;;;;21.00;83.20;;;;;;5097196;28;19951;-54
2022/09/11 07:21:42;;;;;;;;;;;21.10;83.30;;;;;;5097860;28;19908;-56
2022/09/11 07:24:08;;;;;;;;;;;21.10;83.30;;;;;;5097182;28;20294;-55
2022/09/11 07:26:35;;;;;;;;;;;21.10;83.30;;;;;;5096931;28;19912;-55
2022/09/11 07:29:00;;;;;;;;;;;21.10;83.30;;;;;;5097095;28;19912;-51
2022/09/11 07:31:31;;;;;;;;;;;21.10;83.30;;;;;;5096976;28;20264;-52
2022/09/11 07:33:57;;;;;;;;;;;21.00;83.20;;;;;;5096997;28;19908;-53
2022/09/11 07:36:25;;;;;;;;;;;21.10;83.30;;;;;;5096810;28;19974;-56
2022/09/11 07:38:50;;;;;;;;;;;21.10;83.30;;;;;;5096894;28;20270;-56
2022/09/11 07:41:17;;;;;;;;;;;21.10;83.30;;;;;;5096511;28;19908;-57
2022/09/11 07:43:47;;;;;;;;;;;21.10;83.30;;;;;;5096755;28;20304;-55
2022/09/11 07:46:13;;;;;;;;;;;21.10;83.20;;;;;;5096630;28;19912;-55
2022/09/11 07:48:39;;;;;;;;;;;21.10;83.20;;;;;;5096882;28;19913;-57
2022/09/11 07:51:06;;;;;;;;;;;21.10;83.20;;;;;;5097194;28;19908;-54
2022/09/11 07:53:33;;;;;;;;;;;21.10;83.30;;;;;;5096686;28;20017;-56
2022/09/11 07:56:02;;;;;;;;;;;21.10;83.30;;;;;;5096773;28;19908;-55
2022/09/11 07:58:35;;;;;;;;;;;21.10;83.30;;;;;;5096489;28;19916;-56
2022/09/11 08:01:02;;;;;;;;;;;21.10;83.30;;;;;;5096224;28;19961;-55
2022/09/11 08:03:29;;;;;;;;;;;21.10;83.30;;;;;;5078204;28;20107;-54
2022/09/11 08:05:59;;;;;;;;;;;21.10;83.20;;;;;;5096340;28;19912;-56
2022/09/11 08:08:24;;;;;;;;;;;21.10;83.30;;;;;;5096669;28;19919;-55
2022/09/11 08:10:50;;;;;;;;;;;21.10;83.30;;;;;;5096295;28;20267;-56
2022/09/11 08:13:16;;;;;;;;;;;21.10;83.30;;;;;;5096577;28;19915;-55
2022/09/11 08:15:45;;;;;;;;;;;21.10;83.30;;;;;;5096441;28;20373;-53
2022/09/11 08:18:10;;;;;;;;;;;21.10;83.30;;;;;;5096522;28;19908;-52
2022/09/11 08:20:35;;;;;;;;;;;21.10;83.30;;;;;;5096289;28;19915;-53
2022/09/11 08:23:01;;;;;;;;;;;21.10;83.30;;;;;;5096297;28;20436;-53
2022/09/11 08:25:27;;;;;;;;;;;21.10;83.30;;;;;;5096141;28;19912;-55
2022/09/11 08:27:53;;;;;;;;;;;21.10;83.30;;;;;;5095386;28;19918;-55
2022/09/11 08:30:18;;;;;;;;;;;21.10;83.30;;;;;;5078162;28;20277;-56
2022/09/11 08:32:44;;;;;;;;;;;21.10;83.30;;;;;;5096199;28;19912;-55
2022/09/11 08:35:09;;;;;;;;;;;21.10;83.30;;;;;;5096093;28;19908;-51
2022/09/11 08:37:35;;;;;;;;;;;21.10;83.30;;;;;;5096140;28;19915;-52
2022/09/11 08:40:00;;;;;;;;;;;21.10;83.30;;;;;;5095667;28;19915;-54
2022/09/11 08:42:27;;;;;;;;;;;21.10;83.30;;;;;;5095787;28;19908;-51
2022/09/11 08:44:55;;;;;;;;;;;21.10;83.30;;;;;;5077593;28;20396;-54
2022/09/11 08:47:23;;;;;;;;;;;21.10;83.30;;;;;;5095667;28;19934;-55
2022/09/11 08:50:12;;;;;;;;;;;21.00;83.30;;;;;;5095584;28;19916;-57
2022/09/11 08:52:37;;;;;;;;;;;21.00;83.30;;;;;;5066640;28;19915;-54
2022/09/11 08:55:03;;;;;;;;;;;21.10;83.30;;;;;;5095766;28;20271;-56
2022/09/11 08:57:48;;;;;;;;;;;21.10;83.30;;;;;;5096033;28;19916;-53
2022/09/11 09:00:16;;;;;;;;;;;21.00;83.30;;;;;;5095281;28;19966;-55
2022/09/11 09:03:01;;;;;;;;;;;21.10;83.40;;;;;;5094942;28;20065;-56
2022/09/11 09:05:27;;;;;;;;;;;21.10;83.30;;;;;;5095494;28;19956;-52
2022/09/11 09:07:52;;;;;;;;;;;21.10;83.40;;;;;;5095724;28;19943;-52
2022/09/11 09:10:30;;;;;;;;;;;21.10;83.40;;;;;;5095190;28;19912;-55
2022/09/11 09:13:06;;;;;;;;;;;21.10;83.40;;;;;;5095358;28;19953;-56
2022/09/11 09:15:44;;;;;;;;;;;21.10;83.40;;;;;;5077052;28;20014;-54
2022/09/11 09:18:12;;;;;;;;;;;21.10;83.30;;;;;;5095300;28;20361;-54
2022/09/11 09:20:44;;;;;;;;;;;21.10;83.40;;;;;;5077304;28;19912;-50
2022/09/11 09:23:20;;;;;;;;;;;21.10;83.40;;;;;;5095281;28;19995;-52
2022/09/11 09:25:47;;;;;;;;;;;21.10;83.40;;;;;;5094869;28;19964;-54
2022/09/11 09:28:18;;;;;;;;;;;21.10;83.40;;;;;;5095362;28;19916;-54
2022/09/11 09:30:49;;;;;;;;;;;21.00;83.30;;;;;;5094693;28;19948;-55
2022/09/11 09:33:24;;;;;;;;;;;21.00;83.40;;;;;;5076933;28;20262;-55
2022/09/11 09:35:50;;;;;;;;;;;21.10;83.40;;;;;;5094942;28;19916;-52
2022/09/11 09:38:20;;;;;;;;;;;21.00;83.40;;;;;;5076742;28;19908;-54
2022/09/11 09:41:04;;;;;;;;;;;21.00;83.40;;;;;;5094847;28;20275;-56
2022/09/11 09:43:35;;;;;;;;;;;21.00;83.40;;;;;;5094800;28;19908;-55
2022/09/11 09:46:21;;;;;;;;;;;21.10;83.50;;;;;;5094773;28;19966;-55
2022/09/11 09:48:47;;;;;;;;;;;21.00;83.40;;;;;;5076676;28;20236;-57
2022/09/11 09:51:13;;;;;;;;;;;21.10;83.50;;;;;;5094495;28;19915;-55
2022/09/11 09:53:49;;;;;;;;;;;21.00;83.40;;;;;;5094351;28;20467;-55
2022/09/11 09:56:16;;;;;;;;;;;21.00;83.40;;;;;;5095023;28;19908;-54
2022/09/11 09:58:53;;;;;;;;;;;21.10;83.50;;;;;;5094222;28;20409;-55
2022/09/11 10:01:37;;;;;;;;;;;21.10;83.50;;;;;;5094363;28;20343;-55
2022/09/11 10:04:10;;;;;;;;;;;21.10;83.50;;;;;;5093841;28;19927;-55
2022/09/11 10:06:36;;;;;;;;;;;21.10;83.50;;;;;;5094033;28;19924;-57
2022/09/11 10:09:03;;;;;;;;;;;21.10;83.40;;;;;;5075487;28;21328;-52
2022/09/11 10:11:28;;;;;;;;;;;21.00;83.40;;;;;;5094382;28;19944;-56
2022/09/11 10:13:54;;;;;;;;;;;21.10;83.50;;;;;;5094320;28;20309;-55
2022/09/11 10:16:22;;;;;;;;;;;21.10;83.50;;;;;;5094030;28;19944;-56
2022/09/11 10:18:47;;;;;;;;;;;21.00;83.40;;;;;;5094215;28;19915;-56
2022/09/11 10:21:25;;;;;;;;;;;21.00;83.40;;;;;;5093966;28;19909;-55
2022/09/11 10:23:50;;;;;;;;;;;21.00;83.40;;;;;;5075975;28;20007;-56
2022/09/11 10:26:36;;;;;;;;;;;21.00;83.40;;;;;;5094134;28;20003;-56
2022/09/11 10:29:12;;;;;;;;;;;21.10;83.50;;;;;;5093110;28;19912;-56
2022/09/11 10:31:39;;;;;;;;;;;21.10;83.50;;;;;;5093784;28;20476;-55
2022/09/11 10:34:06;;;;;;;;;;;21.00;83.40;;;;;;5093759;28;19995;-56
2022/09/11 10:36:33;;;;;;;;;;;21.00;83.40;;;;;;5093622;28;19908;-56
2022/09/11 10:39:00;;;;;;;;;;;21.00;83.40;;;;;;5093680;28;19908;-56
2022/09/11 10:41:26;;;;;;;;;;;21.00;83.40;;;;;;5093881;28;19908;-57
2022/09/11 10:44:00;;;;;;;;;;;21.00;83.40;;;;;;5075405;28;19950;-53
2022/09/11 10:46:27;;;;;;;;;;;21.00;83.40;;;;;;5093907;28;20007;-56
2022/09/11 10:48:55;;;;;;;;;;;21.00;83.40;;;;;;5093778;28;19919;-56
2022/09/11 10:51:21;;;;;;;;;;;21.10;83.40;;;;;;5097212;28;19908;-54
2022/09/11 10:54:02;;;;;;;;;;;21.10;83.50;;;;;;5097986;28;19908;-54
2022/09/11 10:56:27;;;;;;;;;;;21.00;83.40;;;;;;5097981;28;19908;-52
2022/09/11 10:58:56;;;;;;;;;;;21.00;83.40;;;;;;5097629;28;20365;-56
2022/09/11 11:01:22;;;;;;;;;;;21.10;83.50;;;;;;5097758;28;19987;-53
2022/09/11 11:03:47;;;;;;;;;;;21.10;83.50;;;;;;5097347;28;19927;-56
2022/09/11 11:06:38;;;;;;;;;;;21.00;83.40;;;;;;5097609;28;19970;-55
2022/09/11 11:09:09;;;;;;;;;;;21.00;83.40;;;;;;5097464;28;19957;-53
2022/09/11 11:11:43;;;;;;;;;;;21.00;83.50;;;;;;5097749;28;19908;-56
2022/09/11 11:14:36;;;;;;;;;;;21.00;83.50;;;;;;5097531;28;19912;-51
2022/09/11 11:17:14;;;;;;;;;;;21.00;83.50;;;;;;5094738;28;19912;-57
2022/09/11 11:19:58;;;;;;;;;;;21.00;83.50;;;;;;5079209;28;19908;-57
2022/09/11 11:22:47;;;;;;;;;;;21.00;83.50;;;;;;5097430;28;19991;-57
2022/09/11 11:25:20;;;;;;;;;;;21.00;83.50;;;;;;5097863;28;20468;-57
2022/09/11 11:28:05;;;;;;;;;;;21.00;83.50;;;;;;5097205;28;19923;-55
2022/09/11 11:30:54;;;;;;;;;;;21.00;83.50;;;;;;5097231;28;20343;-56
2022/09/11 11:33:19;;;;;;;;;;;21.00;83.50;;;;;;5067938;28;19908;-53
2022/09/11 11:35:51;;;;;;;;;;;21.10;83.50;;;;;;5097551;28;19909;-56
2022/09/11 11:38:21;;;;;;;;;;;21.10;83.60;;;;;;5079084;28;19915;-56
2022/09/11 11:40:52;;;;;;;;;;;21.00;83.50;;;;;;5097140;28;19919;-55
2022/09/11 11:43:21;;;;;;;;;;;21.00;83.50;;;;;;5096806;28;20366;-54
2022/09/11 11:45:49;;;;;;;;;;;21.00;83.50;;;;;;5096993;28;19912;-56
2022/09/11 11:48:31;;;;;;;;;;;21.00;83.50;;;;;;5097044;28;19919;-54
2022/09/11 11:51:00;;;;;;;;;;;21.00;83.50;;;;;;5096835;28;19908;-53
2022/09/11 11:53:35;;;;;;;;;;;21.00;83.50;;;;;;5096985;28;19908;-54
2022/09/11 11:56:21;;;;;;;;;;;21.00;83.50;;;;;;5096806;28;19951;-53
2022/09/11 11:58:50;;;;;;;;;;;21.00;83.50;;;;;;5096506;28;19908;-54
2022/09/11 12:01:35;;;;;;;;;;;21.00;83.50;;;;;;5095689;28;19908;-56
2022/09/11 12:04:11;;;;;;;;;;;21.10;83.60;;;;;;5085414;28;19927;-56
2022/09/11 12:06:37;;;;;;;;;;;21.00;83.50;;;;;;5096226;28;20010;-54
2022/09/11 12:09:04;;;;;;;;;;;21.00;83.50;;;;;;5096404;28;19948;-53
2022/09/11 12:11:31;;;;;;;;;;;21.00;83.50;;;;;;5096076;28;19927;-55
2022/09/11 12:13:57;;;;;;;;;;;21.00;83.60;;;;;;5096077;28;19909;-54
2022/09/11 12:16:30;;;;;;;;;;;21.00;83.50;;;;;;5096572;28;19908;-56
2022/09/11 12:19:02;;;;;;;;;;;21.00;83.50;;;;;;5078120;28;19908;-51
2022/09/11 12:21:30;;;;;;;;;;;21.00;83.50;;;;;;5095946;28;20351;-55
2022/09/11 12:23:55;;;;;;;;;;;21.10;83.60;;;;;;5078299;28;20240;-50
2022/09/11 12:26:29;;;;;;;;;;;21.00;83.50;;;;;;5078052;28;19912;-54
2022/09/11 12:29:18;;;;;;;;;;;21.00;83.50;;;;;;5096503;28;19944;-52
2022/09/11 12:31:50;;;;;;;;;;;21.00;83.50;;;;;;5095959;28;20369;-56
2022/09/11 12:34:17;;;;;;;;;;;21.10;83.60;;;;;;5096098;28;19958;-51
2022/09/11 12:36:59;;;;;;;;;;;21.10;83.60;;;;;;5095552;28;20266;-56
2022/09/11 12:39:37;;;;;;;;;;;21.10;83.60;;;;;;5095944;28;19915;-55
2022/09/11 12:42:32;;;;;;;;;;;21.10;83.60;;;;;;5077663;28;19923;-55
2022/09/11 12:44:58;;;;;;;;;;;21.10;83.60;;;;;;5095256;28;19942;-55
2022/09/11 12:47:23;;;;;;;;;;;21.10;83.60;;;;;;5077327;28;19919;-53
2022/09/11 12:49:51;;;;;;;;;;;21.00;83.60;;;;;;5095466;28;19912;-51
2022/09/11 12:52:22;;;;;;;;;;;21.10;83.70;;;;;;5077496;28;20351;-57
2022/09/11 12:54:48;;;;;;;;;;;21.10;83.60;;;;;;5095744;28;19908;-55
2022/09/11 12:57:20;;;;;;;;;;;21.10;83.60;;;;;;5095141;28;19930;-53
2022/09/11 12:59:51;;;;;;;;;;;21.10;83.60;;;;;;5095073;28;19989;-53
2022/09/11 13:02:24;;;;;;;;;;;21.00;83.60;;;;;;5095625;28;19908;-55
2022/09/11 13:04:51;;;;;;;;;;;21.10;83.60;;;;;;5077002;28;20268;-54
2022/09/11 13:07:28;;;;;;;;;;;21.10;83.60;;;;;;5095488;28;20250;-55
2022/09/11 13:09:56;;;;;;;;;;;21.10;83.70;;;;;;5095748;28;19966;-56
2022/09/11 13:12:24;;;;;;;;;;;21.10;83.70;;;;;;5076849;28;20266;-56
2022/09/11 13:14:52;;;;;;;;;;;21.10;83.70;;;;;;5095160;28;19995;-55
2022/09/11 13:17:24;;;;;;;;;;;21.10;83.70;;;;;;5095531;28;19912;-57
2022/09/11 13:19:56;;;;;;;;;;;21.00;83.60;;;;;;5095040;28;19961;-53
2022/09/11 13:22:26;;;;;;;;;;;21.10;83.70;;;;;;5094930;28;20255;-55
2022/09/11 13:25:03;;;;;;;;;;;21.00;83.70;;;;;;5095299;28;19908;-55
2022/09/11 13:27:29;;;;;;;;;;;21.10;83.70;;;;;;5094942;28;19913;-55
2022/09/11 13:29:55;;;;;;;;;;;21.10;83.70;;;;;;5094654;28;20291;-57
2022/09/11 13:32:21;;;;;;;;;;;21.10;83.70;;;;;;5094459;28;19908;-55
2022/09/11 13:34:49;;;;;;;;;;;21.10;83.70;;;;;;5094806;28;20270;-56
2022/09/11 13:37:21;;;;;;;;;;;21.10;83.70;;;;;;5094595;28;20003;-57
2022/09/11 13:39:46;;;;;;;;;;;21.10;83.70;;;;;;5095018;28;19961;-55
2022/09/11 13:42:15;;;;;;;;;;;21.00;83.70;;;;;;5094665;28;20343;-56
2022/09/11 13:44:45;;;;;;;;;;;21.10;83.70;;;;;;5094942;28;19965;-54
2022/09/11 13:47:20;;;;;;;;;;;21.10;83.70;;;;;;5094506;28;19912;-55
2022/09/11 13:49:46;;;;;;;;;;;21.10;83.70;;;;;;5094608;28;19965;-57
2022/09/11 13:52:12;;;;;;;;;;;21.10;84.20;;;;;;5076215;28;19908;-54
2022/09/11 13:54:46;;;;;;;;;;;21.10;83.70;;;;;;5076202;28;20002;-54
2022/09/11 13:57:14;;;;;;;;;;;21.10;83.70;;;;;;5076138;28;20362;-56
2022/09/11 13:59:43;;;;;;;;;;;21.10;83.70;;;;;;5076131;28;20307;-55
2022/09/11 14:02:20;;;;;;;;;;;21.10;83.70;;;;;;5094031;28;20007;-53
2022/09/11 14:04:46;;;;;;;;;;;21.10;83.70;;;;;;5094307;28;19920;-57
2022/09/11 14:07:17;;;;;;;;;;;21.10;83.70;;;;;;5094222;28;19935;-54
2022/09/11 14:09:47;;;;;;;;;;;21.00;83.60;;;;;;5094081;28;20363;-57
2022/09/11 14:12:13;;;;;;;;;;;21.00;83.70;;;;;;5094209;28;19984;-56
2022/09/11 14:14:41;;;;;;;;;;;21.10;83.70;;;;;;5093888;28;19912;-53
2022/09/11 14:17:08;;;;;;;;;;;21.10;83.70;;;;;;5093861;28;19955;-54
2022/09/11 14:19:35;;;;;;;;;;;21.10;83.70;;;;;;5093922;28;19952;-52
2022/09/11 14:22:11;;;;;;;;;;;21.10;83.70;;;;;;5094232;28;19962;-55
2022/09/11 14:24:37;;;;;;;;;;;21.10;83.70;;;;;;5093462;28;19912;-55
2022/09/11 14:27:23;;;;;;;;;;;21.10;83.70;;;;;;5094004;28;19927;-55